Time;durP1;ratioP1;P1;durP2;ratioP2;P2;SDS_P1;SDS_P2;PMS_P1;PMS_P2;Temp;Humidity;BMP_temperature;BMP_pressure;BME280_temperature;BME280_humidity;BME280_pressure;Samples;Min_cycle;Max_cycle;Signal;HPM_P1;HPM_P2
2021/09/16 00:01:54;;;;;;;7.78;2.90;;;;;;;13.79;100.00;101454.44;5258068;28;20029;-68
2021/09/16 00:04:27;;;;;;;6.70;2.88;;;;;;;13.77;100.00;101457.19;5264355;28;20630;-68
2021/09/16 00:06:58;;;;;;;12.00;3.53;;;;;;;13.77;100.00;101464.25;5263355;28;20036;-68
2021/09/16 00:09:29;;;;;;;6.03;3.05;;;;;;;13.79;100.00;101460.53;5263117;28;20037;-67
2021/09/16 00:12:01;;;;;;;8.13;3.17;;;;;;;13.70;100.00;101460.50;5264196;28;20047;-68
2021/09/16 00:14:32;;;;;;;8.75;3.58;;;;;;;13.65;100.00;101466.16;5265159;28;20084;-68
2021/09/16 00:17:03;;;;;;;6.88;2.95;;;;;;;13.65;100.00;101463.53;5261840;28;20063;-67
2021/09/16 00:19:35;;;;;;;5.80;3.50;;;;;;;13.58;100.00;101462.41;5260169;28;20505;-68
2021/09/16 00:22:06;;;;;;;7.10;3.63;;;;;;;13.61;100.00;101462.97;5258716;28;20032;-68
2021/09/16 00:24:37;;;;;;;7.03;3.28;;;;;;;13.54;100.00;101461.84;5259774;28;20127;-68
2021/09/16 00:27:09;;;;;;;6.40;3.15;;;;;;;13.53;100.00;101464.63;5259476;28;20061;-68
2021/09/16 00:29:40;;;;;;;7.82;3.75;;;;;;;13.43;100.00;101455.84;5260651;28;20199;-68
2021/09/16 00:32:12;;;;;;;8.68;3.35;;;;;;;13.42;100.00;101467.34;5259946;28;20553;-68
2021/09/16 00:34:43;;;;;;;9.57;3.40;;;;;;;13.49;100.00;101463.22;5258241;28;20041;-68
2021/09/16 00:37:15;;;;;;;6.50;3.45;;;;;;;13.49;100.00;101461.41;5257751;28;20033;-68
2021/09/16 00:39:47;;;;;;;6.85;3.47;;;;;;;13.45;100.00;101467.06;5260945;28;20061;-68
2021/09/16 00:42:18;;;;;;;8.23;3.13;;;;;;;13.47;100.00;101463.34;5261645;28;20079;-68
2021/09/16 00:44:49;;;;;;;7.32;3.50;;;;;;;13.41;100.00;101457.78;5258345;28;20466;-68
2021/09/16 00:47:21;;;;;;;6.45;3.63;;;;;;;13.39;100.00;101450.00;5259942;28;20104;-68
2021/09/16 00:49:52;;;;;;;5.72;3.15;;;;;;;13.35;100.00;101451.25;5260341;28;20348;-68
2021/09/16 00:52:24;;;;;;;6.13;3.45;;;;;;;13.31;100.00;101455.13;5261500;28;20034;-68
2021/09/16 00:54:57;;;;;;;5.93;3.47;;;;;;;13.31;100.00;101452.50;5261798;28;20862;-67
2021/09/16 00:57:29;;;;;;;6.00;3.80;;;;;;;13.24;100.00;101457.44;5262294;28;20090;-67
2021/09/16 01:00:04;;;;;;;7.97;3.50;;;;;;;13.24;100.00;101453.97;5258237;28;20044;-67
2021/09/16 01:02:36;;;;;;;7.45;3.33;;;;;;;13.18;100.00;101459.72;5259764;28;20271;-67
2021/09/16 01:05:08;;;;;;;10.90;4.07;;;;;;;13.17;100.00;101469.41;5259846;28;20040;-68
2021/09/16 01:07:40;;;;;;;7.85;3.10;;;;;;;13.15;100.00;101468.75;5259844;28;20060;-68
2021/09/16 01:10:12;;;;;;;6.93;3.90;;;;;;;13.10;100.00;101474.38;5258618;28;20044;-68
2021/09/16 01:12:46;;;;;;;7.30;3.40;;;;;;;13.14;100.00;101464.41;5262627;28;20450;-68
2021/09/16 01:15:17;;;;;;;5.03;3.42;;;;;;;13.14;100.00;101467.06;5262143;28;20030;-68
2021/09/16 01:17:49;;;;;;;10.18;3.25;;;;;;;13.12;100.00;101466.38;5263560;28;20060;-68
2021/09/16 01:20:20;;;;;;;10.73;4.05;;;;;;;13.09;100.00;101466.63;5262204;28;20539;-67
2021/09/16 01:22:52;;;;;;;7.57;3.60;;;;;;;13.07;100.00;101468.56;5262341;28;20052;-67
2021/09/16 01:25:28;;;;;;;7.55;4.07;;;;;;;13.07;100.00;101464.13;5261764;28;20028;-67
2021/09/16 01:28:01;;;;;;;6.80;3.40;;;;;;;12.99;100.00;101469.19;5263034;28;20024;-68
2021/09/16 01:30:32;;;;;;;;;;;;;;;13.35;100.00;101461.78;5261698;28;20036;-68
2021/09/16 01:33:04;;;;;;;7.38;3.42;;;;;;;13.00;100.00;101462.16;5258459;28;19927;-68
2021/09/16 01:35:35;;;;;;;5.20;3.33;;;;;;;12.98;100.00;101466.69;5262585;28;20102;-68
2021/09/16 01:38:06;;;;;;;6.95;3.88;;;;;;;12.93;100.00;101461.84;5262017;28;20482;-67
2021/09/16 01:40:38;;;;;;;5.60;3.28;;;;;;;12.87;100.00;101460.53;5262144;28;20110;-68
2021/09/16 01:43:09;;;;;;;7.15;3.90;;;;;;;12.94;100.00;101467.94;5262171;28;20025;-67
2021/09/16 01:45:40;;;;;;;9.52;4.03;;;;;;;12.84;100.00;101468.72;5264162;28;20471;-68
2021/09/16 01:48:12;;;;;;;6.47;3.90;;;;;;;12.83;100.00;101474.09;5261653;28;20028;-68
2021/09/16 01:50:43;;;;;;;7.25;3.78;;;;;;;12.83;100.00;101472.28;5262365;28;20050;-68
2021/09/16 01:53:14;;;;;;;8.95;3.67;;;;;;;12.88;100.00;101470.13;5262894;28;20025;-68
2021/09/16 01:55:46;;;;;;;8.82;3.78;;;;;;;12.80;100.00;101467.28;5262102;28;20029;-68
2021/09/16 01:58:17;;;;;;;6.68;3.80;;;;;;;12.81;100.00;101463.72;5264392;28;20412;-68
2021/09/16 02:00:48;;;;;;;7.85;3.33;;;;;;;12.79;100.00;101470.06;5259873;28;20280;-68
2021/09/16 02:03:19;;;;;;;7.18;3.58;;;;;;;12.77;100.00;101470.19;5260342;28;20363;-68
2021/09/16 02:05:51;;;;;;;6.47;3.92;;;;;;;12.78;100.00;101479.75;5257726;28;20028;-67
2021/09/16 02:08:22;;;;;;;8.05;4.13;;;;;;;12.73;100.00;101478.44;5260474;28;20048;-67
2021/09/16 02:10:54;;;;;;;8.15;4.00;;;;;;;12.66;100.00;101476.34;5262614;28;20051;-67
2021/09/16 02:13:26;;;;;;;7.53;4.32;;;;;;;12.67;100.00;101487.69;5259322;28;20029;-67
2021/09/16 02:15:57;;;;;;;8.10;4.40;;;;;;;12.64;100.00;101485.31;5262379;28;20032;-68
2021/09/16 02:18:29;;;;;;;8.40;4.00;;;;;;;12.60;100.00;101482.09;5260950;28;20378;-67
2021/09/16 02:21:00;;;;;;;6.28;4.03;;;;;;;12.60;100.00;101492.63;5262031;28;20033;-68
2021/09/16 02:23:31;;;;;;;8.13;4.25;;;;;;;12.62;100.00;101501.22;5260672;28;20069;-68
2021/09/16 02:26:03;;;;;;;6.35;3.67;;;;;;;12.61;100.00;101493.44;5262144;28;20029;-67
2021/09/16 02:28:35;;;;;;;6.60;3.80;;;;;;;12.58;100.00;101494.56;5260511;28;20025;-67
2021/09/16 02:31:06;;;;;;;9.98;4.15;;;;;;;12.54;100.00;101490.50;5260121;28;20029;-67
2021/09/16 02:33:37;;;;;;;6.20;4.18;;;;;;;12.57;100.00;101498.13;5261965;28;20025;-67
2021/09/16 02:36:08;;;;;;;7.93;4.43;;;;;;;12.54;100.00;101487.88;5262460;28;20035;-67
2021/09/16 02:38:40;;;;;;;6.95;4.05;;;;;;;12.52;100.00;101492.41;5262362;28;20483;-68
2021/09/16 02:41:11;;;;;;;5.47;4.30;;;;;;;12.49;100.00;101491.84;5258735;28;20301;-68
2021/09/16 02:43:42;;;;;;;6.88;3.90;;;;;;;12.52;100.00;101499.47;5260785;28;20032;-68
2021/09/16 02:46:14;;;;;;;6.88;3.90;;;;;;;12.50;100.00;101496.13;5263699;28;20474;-67
2021/09/16 02:48:47;;;;;;;5.93;3.95;;;;;;;12.54;100.00;101498.41;5260678;28;20308;-67
2021/09/16 02:51:18;;;;;;;8.63;4.63;;;;;;;12.45;100.00;101495.69;5259287;28;20033;-67
2021/09/16 02:53:49;;;;;;;7.45;4.30;;;;;;;12.47;100.00;101491.97;5260724;28;20071;-67
2021/09/16 02:56:20;;;;;;;7.53;4.18;;;;;;;12.46;100.00;101500.81;5259573;28;20036;-68
2021/09/16 02:58:52;;;;;;;7.10;4.38;;;;;;;12.46;100.00;101499.97;5261430;28;20441;-68
2021/09/16 03:01:23;;;;;;;7.40;4.22;;;;;;;12.41;100.00;101498.56;5260813;28;20096;-67
2021/09/16 03:03:54;;;;;;;8.57;4.40;;;;;;;12.38;100.00;101498.81;5261003;28;20083;-67
2021/09/16 03:06:26;;;;;;;11.25;4.50;;;;;;;12.37;100.00;101502.41;5258965;28;20020;-67
2021/09/16 03:08:57;;;;;;;7.45;4.45;;;;;;;12.34;100.00;101507.06;5259474;28;20087;-68
2021/09/16 03:11:28;;;;;;;7.60;4.18;;;;;;;12.33;100.00;101498.34;5260805;28;20020;-67
2021/09/16 03:13:59;;;;;;;7.85;4.20;;;;;;;12.32;100.00;101496.69;5261274;28;20469;-67
2021/09/16 03:16:31;;;;;;;7.80;4.45;;;;;;;12.35;100.00;101506.97;5258827;28;20036;-67
2021/09/16 03:19:02;;;;;;;8.23;4.57;;;;;;;12.37;100.00;101502.41;5259862;28;20070;-67
2021/09/16 03:21:34;;;;;;;7.95;4.90;;;;;;;12.34;100.00;101504.44;5259963;28;20113;-67
2021/09/16 03:24:05;;;;;;;7.60;4.95;;;;;;;12.29;100.00;101504.00;5258903;28;20024;-67
2021/09/16 03:26:36;;;;;;;8.30;4.55;;;;;;;12.31;100.00;101513.44;5258593;28;20402;-67
2021/09/16 03:29:08;;;;;;;8.48;4.75;;;;;;;12.29;100.00;101504.00;5259417;28;20021;-67
2021/09/16 03:31:39;;;;;;;8.35;4.45;;;;;;;12.30;100.00;101516.16;5260836;28;20068;-68
2021/09/16 03:34:10;;;;;;;6.35;4.45;;;;;;;12.27;100.00;101511.97;5260664;28;20021;-67
2021/09/16 03:36:42;;;;;;;8.48;4.60;;;;;;;12.23;100.00;101515.00;5258874;28;20461;-67
2021/09/16 03:39:13;;;;;;;7.50;4.88;;;;;;;12.16;100.00;101505.00;5260255;28;20021;-67
2021/09/16 03:41:44;;;;;;;7.18;4.53;;;;;;;12.23;100.00;101523.69;5260149;28;20049;-67
2021/09/16 03:44:16;;;;;;;7.03;4.22;;;;;;;12.18;100.00;101523.25;5258063;28;20065;-68
2021/09/16 03:46:47;;;;;;;7.85;4.88;;;;;;;12.18;100.00;101521.44;5260570;28;20070;-67
2021/09/16 03:49:19;;;;;;;9.90;4.75;;;;;;;12.22;100.00;101527.28;5260187;28;20414;-68
2021/09/16 03:51:50;;;;;;;10.77;5.00;;;;;;;12.20;100.00;101531.00;5259660;28;20188;-67
2021/09/16 03:54:21;;;;;;;6.97;4.88;;;;;;;12.22;100.00;101522.03;5254363;28;20032;-67
2021/09/16 03:56:53;;;;;;;8.45;5.13;;;;;;;12.23;100.00;101517.63;5258853;28;20112;-67
2021/09/16 03:59:24;;;;;;;7.57;5.40;;;;;;;12.27;100.00;101533.00;5259207;28;20041;-67
2021/09/16 04:01:55;;;;;;;10.35;5.45;;;;;;;12.23;100.00;101528.94;5258165;28;20017;-67
2021/09/16 04:04:27;;;;;;;8.40;5.38;;;;;;;12.21;100.00;101527.44;5256864;28;20032;-67
2021/09/16 04:06:58;;;;;;;10.13;6.18;;;;;;;12.22;100.00;101534.34;5259130;28;20052;-68
2021/09/16 04:09:29;;;;;;;9.10;5.60;;;;;;;12.17;100.00;101534.72;5258618;28;20041;-67
2021/09/16 04:12:01;;;;;;;8.32;5.78;;;;;;;12.14;100.00;101525.28;5259450;28;20029;-68
2021/09/16 04:14:32;;;;;;;10.25;5.50;;;;;;;12.13;100.00;101525.44;5260218;28;20402;-67
2021/09/16 04:17:04;;;;;;;8.75;5.85;;;;;;;12.14;100.00;101533.16;5260199;28;20112;-67
2021/09/16 04:19:35;;;;;;;8.13;5.60;;;;;;;12.12;100.00;101524.59;5259550;28;20089;-67
2021/09/16 04:22:06;;;;;;;13.73;6.90;;;;;;;12.06;100.00;101525.06;5260163;28;20064;-68
2021/09/16 04:24:37;;;;;;;7.85;6.25;;;;;;;12.07;100.00;101525.91;5258971;28;20029;-67
2021/09/16 04:27:11;;;;;;;11.98;6.35;;;;;;;12.06;100.00;101532.94;5256723;28;20052;-67
2021/09/16 04:29:42;;;;;;;9.70;6.53;;;;;;;11.98;100.00;101524.03;5256059;28;20082;-67
2021/09/16 04:32:14;;;;;;;7.75;6.55;;;;;;;12.04;100.00;101537.47;5258582;28;20025;-67
2021/09/16 04:34:46;;;;;;;10.35;6.68;;;;;;;12.03;100.00;101533.19;5260298;28;20359;-67
2021/09/16 04:37:17;;;;;;;9.10;7.07;;;;;;;12.05;100.00;101533.09;5260643;28;20103;-67
2021/09/16 04:39:49;;;;;;;10.98;7.25;;;;;;;12.05;100.00;101535.72;5263014;28;20136;-68
2021/09/16 04:42:20;;;;;;;11.13;8.00;;;;;;;12.01;100.00;101527.25;5262540;28;20397;-67
2021/09/16 04:44:52;;;;;;;11.00;6.90;;;;;;;12.01;100.00;101539.50;5262101;28;20385;-67
2021/09/16 04:47:24;;;;;;;10.20;7.45;;;;;;;11.99;100.00;101538.81;5263042;28;20024;-67
2021/09/16 04:49:55;;;;;;;11.25;7.93;;;;;;;11.97;100.00;101536.31;5261072;28;20027;-67
2021/09/16 04:52:27;;;;;;;10.60;7.75;;;;;;;11.93;100.00;101545.38;5260148;28;20037;-67
2021/09/16 04:54:58;;;;;;;11.70;7.43;;;;;;;11.85;100.00;101540.72;5262147;28;20551;-67
2021/09/16 04:57:29;;;;;;;9.57;7.18;;;;;;;11.85;100.00;101545.16;5262971;28;20179;-67
2021/09/16 05:00:01;;;;;;;9.95;7.43;;;;;;;11.79;100.00;101538.56;5263733;28;20020;-67
2021/09/16 05:02:32;;;;;;;10.57;7.72;;;;;;;11.83;100.00;101540.03;5262525;28;20081;-67
2021/09/16 05:05:05;;;;;;;9.20;8.23;;;;;;;11.78;100.00;101542.16;5260775;28;20040;-67
2021/09/16 05:07:37;;;;;;;11.38;8.77;;;;;;;11.79;100.00;101548.25;5260332;28;20042;-67
2021/09/16 05:10:09;;;;;;;12.73;9.40;;;;;;;11.81;100.00;101544.53;5262238;28;20394;-67
2021/09/16 05:12:41;;;;;;;12.57;10.15;;;;;;;11.81;100.00;101543.69;5261932;28;20068;-67
2021/09/16 05:15:12;;;;;;;12.45;9.77;;;;;;;11.82;100.00;101554.09;5263377;28;20123;-67
2021/09/16 05:17:43;;;;;;;14.35;10.98;;;;;;;11.84;100.00;101546.94;5261031;28;20071;-67
2021/09/16 05:20:15;;;;;;;14.75;11.48;;;;;;;11.87;100.00;101541.47;5264067;28;20055;-67
2021/09/16 05:22:46;;;;;;;13.73;10.73;;;;;;;11.86;100.00;101546.84;5264173;28;20118;-68
2021/09/16 05:25:18;;;;;;;17.73;12.32;;;;;;;11.87;100.00;101535.38;5261630;28;20083;-68
2021/09/16 05:27:49;;;;;;;17.00;11.25;;;;;;;11.89;100.00;101533.44;5256784;28;20028;-67
2021/09/16 05:30:20;;;;;;;14.38;11.73;;;;;;;11.87;100.00;101551.13;5263073;28;20036;-68
2021/09/16 05:32:52;;;;;;;15.50;11.75;;;;;;;11.88;100.00;101552.78;5264622;28;20024;-67
2021/09/16 05:35:23;;;;;;;18.67;12.45;;;;;;;11.90;100.00;101558.78;5257660;28;20036;-67
2021/09/16 05:37:58;;;;;;;15.30;12.27;;;;;;;11.91;100.00;101570.94;5264614;28;20431;-68
2021/09/16 05:40:30;;;;;;;17.00;12.30;;;;;;;11.92;100.00;101568.19;5262214;28;20027;-67
2021/09/16 05:43:02;;;;;;;16.58;12.93;;;;;;;11.93;100.00;101576.88;5263640;28;20517;-68
2021/09/16 05:45:34;;;;;;;16.40;12.55;;;;;;;11.93;100.00;101575.13;5263428;28;20052;-68
2021/09/16 05:48:06;;;;;;;21.25;12.95;;;;;;;11.96;100.00;101576.66;5260909;28;20024;-68
2021/09/16 05:50:37;;;;;;;17.50;12.68;;;;;;;11.99;100.00;101571.16;5261168;28;20359;-68
2021/09/16 05:53:09;;;;;;;17.88;12.40;;;;;;;12.01;100.00;101565.78;5261558;28;20567;-68
2021/09/16 05:55:41;;;;;;;17.02;13.07;;;;;;;12.03;100.00;101569.97;5262439;28;20048;-68
2021/09/16 05:58:13;;;;;;;18.27;13.27;;;;;;;12.04;100.00;101576.88;5261219;28;20025;-68
2021/09/16 06:00:44;;;;;;;18.05;12.30;;;;;;;12.04;100.00;101568.16;5264744;28;20711;-70
2021/09/16 06:03:16;;;;;;;18.40;12.23;;;;;;;12.10;100.00;101575.56;5262577;28;20761;-68
2021/09/16 06:05:47;;;;;;;20.42;12.98;;;;;;;12.10;100.00;101584.28;5259454;28;20029;-69
2021/09/16 06:08:18;;;;;;;18.27;12.65;;;;;;;12.09;100.00;101577.38;5261911;28;20087;-69
2021/09/16 06:10:50;;;;;;;15.27;12.70;;;;;;;12.22;100.00;101586.88;5262754;28;20170;-68
2021/09/16 06:13:21;;;;;;;22.58;13.57;;;;;;;12.28;100.00;101589.03;5259644;28;20047;-66
2021/09/16 06:15:52;;;;;;;17.20;12.52;;;;;;;12.30;100.00;101587.09;5261481;28;20085;-66
2021/09/16 06:18:24;;;;;;;20.00;13.15;;;;;;;12.34;100.00;101584.09;5261419;28;20143;-68
2021/09/16 06:20:56;;;;;;;19.63;11.48;;;;;;;12.36;100.00;101582.19;5259122;28;20435;-65
2021/09/16 06:23:27;;;;;;;19.90;13.20;;;;;;;12.43;100.00;101582.53;5260202;28;20056;-65
2021/09/16 06:25:59;;;;;;;20.38;11.98;;;;;;;12.47;100.00;101583.13;5260952;28;20536;-67
2021/09/16 06:28:30;;;;;;;20.35;11.70;;;;;;;12.51;100.00;101580.13;5260563;28;20426;-67
2021/09/16 06:31:02;;;;;;;18.83;12.32;;;;;;;12.57;100.00;101587.50;5257436;28;20490;-65
2021/09/16 06:33:33;;;;;;;17.10;12.70;;;;;;;12.61;100.00;101588.06;5255920;28;20020;-65
2021/09/16 06:36:05;;;;;;;18.63;12.32;;;;;;;12.64;100.00;101599.19;5246242;28;20028;-66
2021/09/16 06:38:36;;;;;;;21.38;12.93;;;;;;;12.68;100.00;101596.31;5252343;28;20029;-67
2021/09/16 06:41:08;;;;;;;18.20;11.57;;;;;;;12.75;100.00;101600.94;5256837;28;20031;-68
2021/09/16 06:43:39;;;;;;;14.85;12.02;;;;;;;12.81;100.00;101597.00;5259517;28;20025;-67
2021/09/16 06:46:11;;;;;;;18.05;12.75;;;;;;;12.85;100.00;101593.97;5261121;28;20043;-67
2021/09/16 06:48:43;;;;;;;19.10;13.57;;;;;;;12.91;100.00;101590.81;5261303;28;20696;-67
2021/09/16 06:51:14;;;;;;;20.60;13.48;;;;;;;12.99;100.00;101594.59;5260188;28;20037;-67
2021/09/16 06:53:45;;;;;;;22.60;13.75;;;;;;;13.06;100.00;101595.78;5264122;28;20085;-66
2021/09/16 06:56:17;;;;;;;19.27;13.38;;;;;;;13.09;100.00;101591.09;5262281;28;20432;-67
2021/09/16 06:58:48;;;;;;;18.00;13.57;;;;;;;13.17;100.00;101603.59;5260692;28;20104;-67
2021/09/16 07:01:20;;;;;;;18.67;12.95;;;;;;;13.13;100.00;101584.59;5259450;28;20029;-67
2021/09/16 07:03:52;;;;;;;19.63;14.45;;;;;;;13.30;100.00;101590.31;5263038;28;20012;-66
2021/09/16 07:06:24;;;;;;;18.10;13.33;;;;;;;13.34;100.00;101589.91;5259869;28;20029;-66
2021/09/16 07:08:56;;;;;;;20.87;14.77;;;;;;;13.46;100.00;101600.38;5262789;28;20052;-66
2021/09/16 07:11:27;;;;;;;18.17;14.25;;;;;;;13.53;100.00;101601.50;5258584;28;20033;-67
2021/09/16 07:13:59;;;;;;;18.13;13.25;;;;;;;13.59;100.00;101600.97;5260022;28;20529;-68
2021/09/16 07:16:30;;;;;;;18.95;15.00;;;;;;;13.62;100.00;101606.81;5261376;28;20072;-67
2021/09/16 07:19:02;;;;;;;19.70;15.55;;;;;;;13.72;100.00;101601.59;5259898;28;20106;-67
2021/09/16 07:21:33;;;;;;;19.98;14.55;;;;;;;13.76;100.00;101592.47;5258825;28;20039;-67
2021/09/16 07:24:05;;;;;;;18.80;14.52;;;;;;;13.84;100.00;101597.06;5259717;28;20027;-68
2021/09/16 07:26:36;;;;;;;24.10;15.10;;;;;;;13.91;100.00;101602.66;5259935;28;20039;-66
2021/09/16 07:29:08;;;;;;;19.48;13.93;;;;;;;14.01;100.00;101606.13;5262172;28;20024;-66
2021/09/16 07:31:41;;;;;;;18.02;14.07;;;;;;;14.04;100.00;101600.59;5251290;28;20024;-66
2021/09/16 07:34:12;;;;;;;16.00;13.02;;;;;;;14.15;100.00;101607.56;5258020;28;20039;-68
2021/09/16 07:36:44;;;;;;;18.05;13.43;;;;;;;14.19;100.00;101609.78;5249423;28;20020;-68
2021/09/16 07:39:19;;;;;;;16.93;11.97;;;;;;;14.30;100.00;101611.47;5258973;28;20043;-67
2021/09/16 07:41:50;;;;;;;15.95;12.55;;;;;;;14.36;100.00;101609.16;5259785;28;20020;-68
2021/09/16 07:44:22;;;;;;;17.40;11.88;;;;;;;14.43;100.00;101612.06;5261433;28;20047;-67
2021/09/16 07:46:53;;;;;;;16.23;10.82;;;;;;;14.51;100.00;101614.06;5259574;28;20494;-66
2021/09/16 07:49:24;;;;;;;13.05;8.55;;;;;;;14.53;100.00;101618.22;5262221;28;20032;-66
2021/09/16 07:51:56;;;;;;;11.15;8.75;;;;;;;14.67;100.00;101611.72;5260464;28;20038;-67
2021/09/16 07:54:27;;;;;;;15.23;8.57;;;;;;;14.73;100.00;101615.59;5261696;28;20028;-67
2021/09/16 07:56:59;;;;;;;10.82;8.48;;;;;;;14.83;100.00;101622.53;5260381;28;20138;-68
2021/09/16 07:59:30;;;;;;;14.32;8.05;;;;;;;14.88;100.00;101621.28;5261471;28;20033;-67
2021/09/16 08:02:02;;;;;;;10.40;8.00;;;;;;;15.03;100.00;101623.34;5258804;28;20055;-67
2021/09/16 08:04:33;;;;;;;12.55;8.07;;;;;;;15.06;100.00;101620.44;5263197;28;20025;-67
2021/09/16 08:07:04;;;;;;;11.13;6.35;;;;;;;15.17;100.00;101627.38;5260900;28;20041;-67
2021/09/16 08:09:36;;;;;;;11.75;6.57;;;;;;;15.29;100.00;101626.25;5261666;28;20045;-67
2021/09/16 08:12:07;;;;;;;10.98;7.32;;;;;;;15.31;100.00;101626.13;5261725;28;20360;-67
2021/09/16 08:14:39;;;;;;;9.60;6.00;;;;;;;15.48;100.00;101630.66;5266218;28;20412;-67
2021/09/16 08:17:10;;;;;;;9.48;5.82;;;;;;;15.58;100.00;101630.63;5264731;28;20029;-67
2021/09/16 08:19:42;;;;;;;10.35;6.03;;;;;;;15.71;100.00;101630.34;5264713;28;20104;-67
2021/09/16 08:22:13;;;;;;;9.35;5.85;;;;;;;15.79;100.00;101627.81;5265745;28;20036;-67
2021/09/16 08:24:45;;;;;;;11.80;6.50;;;;;;;15.92;100.00;101630.13;5264172;28;20059;-67
2021/09/16 08:27:16;;;;;;;9.77;5.57;;;;;;;15.89;100.00;101630.41;5263326;28;20025;-67
2021/09/16 08:29:47;;;;;;;11.02;6.03;;;;;;;15.96;100.00;101634.16;5264392;28;20111;-68
2021/09/16 08:32:19;;;;;;;9.40;6.22;;;;;;;16.04;100.00;101635.06;5266102;28;20036;-67
2021/09/16 08:34:50;;;;;;;8.75;6.30;;;;;;;16.08;100.00;101632.97;5265400;28;20363;-68
2021/09/16 08:37:22;;;;;;;8.10;6.03;;;;;;;16.09;100.00;101626.69;5263388;28;20028;-66
2021/09/16 08:39:53;;;;;;;10.93;5.28;;;;;;;16.17;100.00;101625.97;5265965;28;20035;-67
2021/09/16 08:42:27;;;;;;;8.27;5.28;;;;;;;16.33;100.00;101633.25;5262073;28;20397;-68
2021/09/16 08:44:58;;;;;;;9.63;5.38;;;;;;;16.55;100.00;101646.03;5263746;28;20079;-68
2021/09/16 08:47:30;;;;;;;10.27;4.80;;;;;;;16.73;100.00;101643.44;5264698;28;20033;-67
2021/09/16 08:50:02;;;;;;;9.30;4.50;;;;;;;16.74;100.00;101647.75;5264393;28;20025;-68
2021/09/16 08:52:37;;;;;;;7.77;3.83;;;;;;;16.74;100.00;101638.03;5265441;28;20032;-67
2021/09/16 08:55:10;;;;;;;6.95;3.63;;;;;;;16.84;100.00;101639.75;5263710;28;20025;-68
2021/09/16 08:57:45;;;;;;;6.07;3.33;;;;;;;16.91;100.00;101635.53;5262192;28;20040;-67
2021/09/16 09:00:19;;;;;;;8.18;2.95;;;;;;;16.94;100.00;101637.88;5266108;28;20032;-67
2021/09/16 09:02:51;;;;;;;8.75;2.17;;;;;;;17.13;100.00;101636.88;5261405;28;20482;-67
2021/09/16 09:05:24;;;;;;;6.65;2.00;;;;;;;17.20;100.00;101633.44;5264759;28;20375;-69
2021/09/16 09:08:01;;;;;;;8.95;2.00;;;;;;;17.36;100.00;101639.84;5261530;28;20052;-68
2021/09/16 09:10:45;;;;;;;9.02;2.30;;;;;;;17.58;100.00;101641.13;5263194;28;20086;-68
2021/09/16 09:13:18;;;;;;;5.38;1.90;;;;;;;17.70;100.00;101648.69;5265895;28;20364;-67
2021/09/16 09:16:00;;;;;;;3.85;1.65;;;;;;;17.77;100.00;101651.56;5263143;28;20029;-68
2021/09/16 09:18:46;;;;;;;6.50;2.05;;;;;;;17.91;100.00;101658.09;5263640;28;20059;-67
2021/09/16 09:21:18;;;;;;;5.45;1.90;;;;;;;17.86;100.00;101661.22;5262474;28;20052;-68
2021/09/16 09:23:54;;;;;;;5.70;1.77;;;;;;;18.15;100.00;101654.72;5260738;28;20371;-69
2021/09/16 09:26:31;;;;;;;4.85;1.30;;;;;;;18.06;100.00;101651.19;5264663;28;20033;-69
2021/09/16 09:29:08;;;;;;;5.00;1.35;;;;;;;18.12;100.00;101661.16;5264025;28;20096;-69
2021/09/16 09:31:42;;;;;;;3.50;1.40;;;;;;;18.27;100.00;101664.03;5259969;28;20391;-68
2021/09/16 09:34:30;;;;;;;8.27;2.38;;;;;;;18.45;100.00;101667.44;5262946;28;20024;-68
2021/09/16 09:37:06;;;;;;;6.60;1.90;;;;;;;18.63;100.00;101661.16;5261879;28;20032;-68
2021/09/16 09:39:39;;;;;;;4.78;1.50;;;;;;;18.68;100.00;101665.00;5263472;28;20029;-67
2021/09/16 09:42:21;;;;;;;4.78;1.70;;;;;;;18.66;100.00;101674.09;5263329;28;20490;-68
2021/09/16 09:44:55;;;;;;;5.50;1.80;;;;;;;18.50;100.00;101668.75;5263235;28;20048;-68
2021/09/16 09:47:41;;;;;;;3.45;1.15;;;;;;;18.58;100.00;101663.47;5258746;28;20059;-68
2021/09/16 09:50:21;;;;;;;3.08;1.38;;;;;;;18.75;100.00;101661.69;5262429;28;20032;-68
2021/09/16 09:53:11;;;;;;;4.32;1.20;;;;;;;18.81;100.00;101655.75;5262925;28;20032;-68
2021/09/16 09:55:43;;;;;;;7.10;1.60;;;;;;;18.76;100.00;101661.53;5263269;28;20592;-67
2021/09/16 09:58:14;;;;;;;6.05;1.40;;;;;;;18.87;100.00;101660.41;5260870;28;20029;-68
2021/09/16 10:00:46;;;;;;;5.13;1.37;;;;;;;19.02;100.00;101661.41;5249594;28;20039;-67
2021/09/16 10:03:27;;;;;;;4.57;1.30;;;;;;;19.14;100.00;101670.69;5260485;28;20033;-68
2021/09/16 10:06:09;;;;;;;3.53;1.40;;;;;;;19.31;100.00;101668.03;5247595;28;20021;-68
2021/09/16 10:08:40;;;;;;;3.88;1.80;;;;;;;19.36;100.00;101673.69;5262460;28;20469;-68
2021/09/16 10:11:11;;;;;;;5.47;1.47;;;;;;;19.33;100.00;101682.00;5260826;28;20469;-68
2021/09/16 10:13:43;;;;;;;6.53;1.30;;;;;;;19.36;100.00;101676.34;5250776;28;20131;-70
2021/09/16 10:16:14;;;;;;;3.43;1.30;;;;;;;19.46;100.00;101676.97;5260749;28;20078;-69
2021/09/16 10:18:46;;;;;;;2.43;1.27;;;;;;;19.48;100.00;101671.50;5261186;28;20036;-68
2021/09/16 10:21:19;;;;;;;4.20;1.37;;;;;;;19.50;100.00;101665.00;5259662;28;20037;-69
2021/09/16 10:23:55;;;;;;;5.10;1.65;;;;;;;19.54;100.00;101669.00;5261547;28;20040;-68
2021/09/16 10:26:34;;;;;;;3.33;1.30;;;;;;;19.63;100.00;101660.06;5263306;28;20030;-69
2021/09/16 10:29:26;;;;;;;3.20;1.25;;;;;;;19.76;100.00;101662.16;5261006;28;20032;-68
2021/09/16 10:32:06;;;;;;;5.30;1.50;;;;;;;19.75;100.00;101665.84;5260297;28;20446;-69
2021/09/16 10:34:49;;;;;;;4.15;1.40;;;;;;;19.89;100.00;101665.13;5261854;28;20509;-69
2021/09/16 10:37:22;;;;;;;3.55;1.25;;;;;;;19.85;100.00;101658.50;5260437;28;20110;-69
2021/09/16 10:39:53;;;;;;;5.97;1.60;;;;;;;19.92;100.00;101663.94;5262842;28;20501;-68
2021/09/16 10:42:52;;;;;;;5.23;1.27;;;;;;;20.03;100.00;101652.09;5261334;28;20082;-68
2021/09/16 10:45:40;;;;;;;4.10;1.60;;;;;;;20.11;100.00;101647.56;5263033;28;20090;-69
2021/09/16 10:48:15;;;;;;;4.68;1.55;;;;;;;20.25;100.00;101645.19;5264529;28;20031;-69
2021/09/16 10:50:54;;;;;;;7.40;1.40;;;;;;;20.51;100.00;101650.25;5261832;28;20035;-69
2021/09/16 10:53:36;;;;;;;3.60;1.50;;;;;;;20.62;100.00;101656.00;5260429;28;20398;-69
2021/09/16 10:56:26;;;;;;;4.30;1.60;;;;;;;20.63;100.00;101660.31;5253415;28;20063;-69
2021/09/16 10:58:59;;;;;;;3.33;1.45;;;;;;;20.56;100.00;101653.19;5259605;28;20044;-69
2021/09/16 11:01:55;;;;;;;7.45;2.00;;;;;;;20.72;100.00;101652.25;5262975;28;20040;-69
2021/09/16 11:04:59;;;;;;;4.60;1.77;;;;;;;20.70;100.00;101635.63;5260888;28;20040;-69
2021/09/16 11:07:30;;;;;;;5.43;1.60;;;;;;;20.79;100.00;101643.38;5260900;28;20090;-70
2021/09/16 11:10:17;;;;;;;5.33;1.63;;;;;;;20.90;100.00;101645.63;5262336;28;20021;-69
2021/09/16 11:12:53;;;;;;;6.10;1.50;;;;;;;20.76;100.00;101648.22;5262215;28;20043;-68
2021/09/16 11:15:34;;;;;;;4.38;1.63;;;;;;;20.90;100.00;101652.78;5261384;28;20052;-69
2021/09/16 11:18:10;;;;;;;5.15;1.67;;;;;;;20.92;100.00;101653.44;5262871;28;20019;-69
2021/09/16 11:20:45;;;;;;;4.60;1.67;;;;;;;20.93;100.00;101655.09;5263990;28;20034;-68
2021/09/16 11:23:18;;;;;;;6.50;1.67;;;;;;;20.98;100.00;101647.38;5263855;28;20377;-68
2021/09/16 11:25:51;;;;;;;4.93;1.65;;;;;;;21.16;100.00;101651.59;5262364;28;20033;-68
2021/09/16 11:28:23;;;;;;;5.30;1.60;;;;;;;21.20;100.00;101653.72;5262212;28;20047;-69
2021/09/16 11:30:54;;;;;;;10.73;1.50;;;;;;;21.37;100.00;101659.75;5258799;28;20040;-69
2021/09/16 11:33:26;;;;;;;3.53;1.33;;;;;;;21.22;100.00;101658.88;5260576;28;20390;-68
2021/09/16 11:36:05;;;;;;;5.03;1.80;;;;;;;21.25;100.00;101655.81;5261587;28;20020;-69
2021/09/16 11:38:37;;;;;;;3.90;1.30;;;;;;;21.10;100.00;101653.13;5261884;28;20569;-68